Nome, AK

9:36 PM AKDT on March 27, 2015 (GMT -0800)
Banner Creek | | Change Station
CLOSE
Current Station
Personal Weather Station
Location: Nome, AK
Elevation: 75 ft
Nearby Weather Stations

Elev 75 ft 64.64 °N, 165.28 °W | Updated 60 seconds ago

Scattered Clouds
Scattered Clouds
14.9 °F
Feels Like 15 °F
N
1.0
Wind Variable Wind from NNE
Gusts 7.0 mph

Today
High -- | Low -- °F
--% Chance of Precip.
Yesterday
High -- | Low -- °F
Precip. -- in
8:36 AM 9:38 PM
First Quarter, 59% visible
Pressure 29.54 in
Visibility 10.0 miles
Clouds Scattered Clouds 20000 ft
Windchill 15 °F
Dew Point 3 °F
Humidity 59%
Rainfall 0.00 in
Snow Depth Not available.
UV 0 out of 12
Pollen Not available.
Air Quality Not available.
Flu Activity Not available.
METAR PAOM 280453Z 04004KT 10SM SCT200 M10/M14 A2953 RMK AO2 SLP001 SCT LYR THN CS T11001144

More Conditions Fewer Conditions

Pressure 29.54 in
Visibility 10.0 miles
Clouds Scattered Clouds 20000 ft
Windchill 15 °F
Dew Point 3 °F
Humidity 59%
Rainfall 0.00 in
Snow Depth Not available.
UV 0 out of 12
Pollen Not available.
Air Quality Not available.
Flu Activity Not available.
METAR PAOM 280453Z 04004KT 10SM SCT200 M10/M14 A2953 RMK AO2 SLP001 SCT LYR THN CS T11001144

More Conditions Fewer Conditions

10-Day Weather Forecast

Almanac

Astronomy

Mar. 27, 2015 Rise Set
Actual Time
Civil Twilight
Nautical Twilight
Astronomical Twilight
Moon
Length of Visible Light
Length of Day
Tomorrow will be .
, % of the Moon is Illuminated

Today's Extremes

State Highs State Lows

Community

WunderPhotos

Upload Photos

1,808,934 photos uploaded!

WunderBlogs® & News

Nearby

Air Quality

  Air Quality AQ Index Pollutant
Not available.

Snow Depth

Station Depth Elevation

Earthquake Activity

City Distance Mag. Time & Date
Minimum magnitude displayed is 2.5.

Coastal Water Temperatures

Place Temperature

Stations

Nearby Weather Stations

Station Location Temp. Windchill Dew Point Humidity Wind Precip. Elev Updated Type